Time;durP1;ratioP1;P1;durP2;ratioP2;P2;SDS_P1;SDS_P2;PMS_P1;PMS_P2;Temp;Humidity;BMP_temperature;BMP_pressure;BME280_temperature;BME280_humidity;BME280_pressure;Samples;Min_cycle;Max_cycle;Signal;HPM_P1;HPM_P2
2021/11/22 00:01:30;;;;;;;2.40;1.33;;;;;;;4.76;100.00;100841.41;4952092;28;20183;-75
2021/11/22 00:03:55;;;;;;;1.50;1.40;;;;;;;4.77;100.00;100838.47;4953272;28;20658;-75
2021/11/22 00:06:20;;;;;;;3.30;1.67;;;;;;;4.84;100.00;100837.41;4953154;28;20257;-76
2021/11/22 00:08:46;;;;;;;1.80;1.70;;;;;;;4.79;100.00;100843.63;4953180;28;20262;-75
2021/11/22 00:11:12;;;;;;;3.10;1.10;;;;;;;4.82;100.00;100847.69;4953050;28;20638;-76
2021/11/22 00:13:37;;;;;;;2.10;1.63;;;;;;;4.89;100.00;100848.25;4953421;28;20188;-75
2021/11/22 00:16:03;;;;;;;1.60;1.30;;;;;;;4.77;100.00;100848.47;4953009;28;20261;-75
2021/11/22 00:18:28;;;;;;;2.80;1.40;;;;;;;4.73;100.00;100852.78;4953215;28;20183;-75
2021/11/22 00:20:53;;;;;;;3.37;1.90;;;;;;;4.64;100.00;100852.47;4953066;28;20238;-75
2021/11/22 00:23:19;;;;;;;4.23;2.10;;;;;;;4.50;100.00;100848.59;4952969;28;20245;-75
2021/11/22 00:25:44;;;;;;;2.00;1.70;;;;;;;4.35;100.00;100862.03;4952823;28;20174;-75
2021/11/22 00:28:10;;;;;;;2.53;2.00;;;;;;;4.42;100.00;100860.72;4953008;28;20179;-76
2021/11/22 00:30:36;;;;;;;1.93;1.70;;;;;;;4.46;100.00;100861.00;4952848;28;20216;-75
2021/11/22 00:33:02;;;;;;;4.53;1.40;;;;;;;4.54;100.00;100867.81;4952886;28;20288;-75
2021/11/22 00:35:34;;;;;;;4.00;2.00;;;;;;;4.56;100.00;100869.19;4952769;28;20658;-75
2021/11/22 00:38:02;;;;;;;3.50;2.20;;;;;;;4.57;100.00;100870.00;4952896;28;20171;-75
2021/11/22 00:40:27;;;;;;;2.30;1.87;;;;;;;4.57;100.00;100870.00;4952845;28;20186;-75
2021/11/22 00:42:53;;;;;;;2.93;2.50;;;;;;;4.43;100.00;100875.03;4952736;28;20310;-75
2021/11/22 00:45:19;;;;;;;3.50;2.20;;;;;;;4.37;100.00;100884.22;4951370;29;20233;-75
2021/11/22 00:47:44;;;;;;;3.27;2.37;;;;;;;4.38;100.00;100891.25;4952805;28;20189;-75
2021/11/22 00:50:11;;;;;;;2.20;2.00;;;;;;;4.38;100.00;100883.94;4959110;28;20185;-75
2021/11/22 00:52:37;;;;;;;2.70;1.93;;;;;;;4.42;100.00;100898.56;4971926;28;20209;-75
2021/11/22 00:55:03;;;;;;;3.50;2.43;;;;;;;4.33;100.00;100897.41;4972379;28;20178;-75
2021/11/22 00:57:29;;;;;;;2.73;1.97;;;;;;;4.32;100.00;100903.09;4975880;28;20602;-75
2021/11/22 00:59:54;;;;;;;2.67;2.47;;;;;;;4.26;100.00;100912.25;4975872;28;20228;-75
2021/11/22 01:02:22;;;;;;;3.07;1.93;;;;;;;4.24;100.00;100917.09;4975883;28;20676;-75
2021/11/22 01:04:47;;;;;;;2.13;1.83;;;;;;;4.19;100.00;100917.84;4975654;28;20597;-75
2021/11/22 01:07:13;;;;;;;5.03;2.20;;;;;;;4.15;100.00;100925.66;4976107;28;20338;-76
2021/11/22 01:09:38;;;;;;;2.70;1.93;;;;;;;4.08;100.00;100924.25;4975556;28;20209;-75
2021/11/22 01:12:04;;;;;;;2.37;2.07;;;;;;;4.07;100.00;100922.63;4975616;28;20749;-75
2021/11/22 01:14:29;;;;;;;2.70;2.43;;;;;;;4.02;100.00;100931.50;4975623;28;20178;-75
2021/11/22 01:16:54;;;;;;;3.53;2.77;;;;;;;3.93;100.00;100930.34;4975415;28;20175;-75
2021/11/22 01:19:20;;;;;;;3.07;2.67;;;;;;;3.92;100.00;100939.53;4975600;28;20181;-75
2021/11/22 01:21:45;;;;;;;8.93;2.57;;;;;;;3.93;100.00;100935.75;4975595;28;20538;-75
2021/11/22 01:24:11;;;;;;;4.20;2.83;;;;;;;3.87;100.00;100944.84;4975513;28;20182;-75
2021/11/22 01:26:37;;;;;;;2.90;2.00;;;;;;;3.97;100.00;100952.25;4975349;28;20182;-76
2021/11/22 01:29:03;;;;;;;2.20;1.70;;;;;;;3.89;100.00;100951.63;4975362;28;20181;-75
2021/11/22 01:31:29;;;;;;;2.63;2.17;;;;;;;3.79;100.00;100948.03;4975240;28;20209;-75
2021/11/22 01:33:54;;;;;;;2.80;2.00;;;;;;;3.78;100.00;100957.22;4971764;28;20185;-75
2021/11/22 01:36:20;;;;;;;2.47;2.13;;;;;;;3.77;100.00;100956.41;4975042;28;20186;-75
2021/11/22 01:38:45;;;;;;;2.03;1.83;;;;;;;3.72;100.00;100956.31;4975169;28;20605;-75
2021/11/22 01:41:10;;;;;;;3.27;2.10;;;;;;;3.80;100.00;100957.78;4975157;28;20555;-75
2021/11/22 01:43:36;;;;;;;4.53;2.23;;;;;;;3.80;100.00;100963.16;4975108;28;20680;-75
2021/11/22 01:46:01;;;;;;;1.77;1.67;;;;;;;3.76;100.00;100970.13;4974930;28;20205;-75
2021/11/22 01:48:27;;;;;;;1.90;1.80;;;;;;;3.70;100.00;100969.28;4975025;28;20253;-75
2021/11/22 01:50:53;;;;;;;2.07;1.93;;;;;;;3.73;100.00;100971.47;4974940;28;20185;-75
2021/11/22 01:53:20;;;;;;;4.23;2.17;;;;;;;3.69;100.00;100974.94;4974880;28;20245;-75
2021/11/22 01:55:46;;;;;;;2.87;2.33;;;;;;;3.64;100.00;100975.69;4974578;28;20244;-76
2021/11/22 01:58:12;;;;;;;2.40;2.20;;;;;;;3.69;100.00;100977.63;4974846;28;20178;-75
2021/11/22 02:00:48;;;;;;;2.50;2.30;;;;;;;3.76;100.00;100991.75;4974852;28;20177;-75
2021/11/22 02:03:15;;;;;;;2.30;1.87;;;;;;;3.72;100.00;100983.34;4973522;28;20182;-75
2021/11/22 02:05:42;;;;;;;3.20;2.50;;;;;;;3.70;100.00;100979.25;4974537;28;20193;-75
2021/11/22 02:08:08;;;;;;;1.57;1.47;;;;;;;3.69;100.00;100991.97;4974523;28;20185;-75
2021/11/22 02:10:34;;;;;;;3.23;2.80;;;;;;;3.63;100.00;100998.38;4974389;28;20185;-75
2021/11/22 02:13:00;;;;;;;2.07;1.93;;;;;;;3.63;100.00;101000.25;4974444;28;20212;-75
2021/11/22 02:15:25;;;;;;;2.27;1.77;;;;;;;3.64;100.00;101012.72;4974471;28;20178;-75
2021/11/22 02:17:52;;;;;;;1.97;1.80;;;;;;;3.65;100.00;101007.03;4974549;28;20205;-75
2021/11/22 02:20:23;;;;;;;7.20;2.23;;;;;;;3.66;100.00;101010.56;4974393;28;20182;-75
2021/11/22 02:22:51;;;;;;;2.40;2.20;;;;;;;3.73;100.00;101014.69;4974527;28;20166;-75
2021/11/22 02:25:18;;;;;;;4.27;2.00;;;;;;;3.63;100.00;101027.28;4974278;28;20174;-75
2021/11/22 02:27:45;;;;;;;1.97;1.87;;;;;;;3.60;100.00;101015.06;4974366;28;20581;-75
2021/11/22 02:30:12;;;;;;;2.10;1.87;;;;;;;3.59;100.00;101027.75;4974570;28;20273;-75
2021/11/22 02:32:40;;;;;;;2.37;2.17;;;;;;;3.57;100.00;101029.09;4974485;28;20201;-75
2021/11/22 02:35:09;;;;;;;2.30;2.10;;;;;;;3.58;100.00;101026.13;4974153;28;20177;-76
2021/11/22 02:37:34;;;;;;;3.20;2.30;;;;;;;3.54;100.00;101035.81;4974153;28;20202;-76
2021/11/22 02:40:00;;;;;;;2.80;2.27;;;;;;;3.57;100.00;101031.78;4974182;28;20268;-75
2021/11/22 02:42:27;;;;;;;1.93;1.83;;;;;;;3.56;100.00;101041.78;4974137;28;20178;-75
2021/11/22 02:44:53;;;;;;;2.03;1.93;;;;;;;3.56;100.00;101039.06;4974007;28;20830;-75
2021/11/22 02:47:20;;;;;;;1.60;1.50;;;;;;;3.61;100.00;101051.00;4974051;28;20208;-75
2021/11/22 02:49:45;;;;;;;2.10;1.90;;;;;;;3.64;100.00;101054.03;4973955;28;20633;-75
2021/11/22 02:52:11;;;;;;;2.03;1.40;;;;;;;3.68;100.00;101060.56;4974167;28;20212;-75
2021/11/22 02:54:37;;;;;;;1.63;1.53;;;;;;;3.71;100.00;101059.25;4974006;28;20178;-75
2021/11/22 02:57:03;;;;;;;1.40;1.30;;;;;;;3.70;100.00;101066.53;4973612;28;20565;-75
2021/11/22 02:59:28;;;;;;;1.40;1.30;;;;;;;3.70;100.00;101071.13;4974025;28;20311;-75
2021/11/22 03:01:53;;;;;;;1.40;1.10;;;;;;;3.76;100.00;101075.53;4973822;28;20186;-75
2021/11/22 03:04:29;;;;;;;1.93;1.83;;;;;;;3.70;100.00;101066.53;4973869;28;20189;-75
2021/11/22 03:06:54;;;;;;;1.67;1.40;;;;;;;3.71;100.00;101070.06;4973848;28;20607;-75
2021/11/22 03:09:20;;;;;;;2.57;1.87;;;;;;;3.69;100.00;101081.13;4973571;28;20225;-75
2021/11/22 03:11:45;;;;;;;1.43;1.30;;;;;;;3.67;100.00;101083.25;4973470;28;20220;-74
2021/11/22 03:14:10;;;;;;;3.27;2.10;;;;;;;3.65;100.00;101085.41;4973616;28;20182;-74
2021/11/22 03:16:36;;;;;;;4.17;1.93;;;;;;;3.75;100.00;101090.09;4973157;28;20273;-75
2021/11/22 03:19:01;;;;;;;2.20;1.80;;;;;;;3.73;100.00;101086.84;4972877;28;20240;-75
2021/11/22 03:21:26;;;;;;;2.37;1.73;;;;;;;3.71;100.00;101089.78;4973525;28;20265;-75
2021/11/22 03:23:52;;;;;;;1.50;1.40;;;;;;;3.73;100.00;101097.66;4973365;28;20560;-75
2021/11/22 03:26:17;;;;;;;1.63;1.53;;;;;;;3.70;100.00;101108.97;4971817;28;20205;-75
2021/11/22 03:28:42;;;;;;;2.37;1.30;;;;;;;3.68;100.00;101109.22;4973320;28;20341;-75
2021/11/22 03:31:08;;;;;;;2.97;1.90;;;;;;;3.68;100.00;101109.22;4971888;28;20177;-75
2021/11/22 03:33:33;;;;;;;2.87;2.00;;;;;;;3.70;100.00;101106.25;4973201;28;20190;-75
2021/11/22 03:35:59;;;;;;;2.30;2.10;;;;;;;3.62;100.00;101114.78;4973035;28;20178;-75
2021/11/22 03:38:26;;;;;;;2.03;1.37;;;;;;;3.58;100.00;101112.56;4973006;28;20174;-75
2021/11/22 03:40:54;;;;;;;4.20;1.73;;;;;;;3.57;100.00;101110.94;4973055;28;20642;-75
2021/11/22 03:43:29;;;;;;;1.63;1.53;;;;;;;3.57;100.00;101119.06;4973040;28;20201;-75
2021/11/22 03:45:55;;;;;;;2.30;2.00;;;;;;;3.65;100.00;101134.03;4972847;28;20162;-75
2021/11/22 03:48:21;;;;;;;2.07;1.87;;;;;;;3.55;100.00;101133.88;4972899;28;20539;-75
2021/11/22 03:50:47;;;;;;;1.90;1.80;;;;;;;3.53;100.00;101131.44;4972845;28;20253;-75
2021/11/22 03:53:12;;;;;;;2.30;1.90;;;;;;;3.55;100.00;101132.00;4972866;28;20202;-75
2021/11/22 03:55:38;;;;;;;2.20;1.37;;;;;;;3.51;100.00;101138.97;4972537;28;20839;-75
2021/11/22 03:58:03;;;;;;;2.33;2.13;;;;;;;3.49;100.00;101142.97;4972573;28;20503;-75
2021/11/22 04:00:29;;;;;;;2.73;1.70;;;;;;;3.46;100.00;101149.66;4972987;28;20206;-75
2021/11/22 04:02:55;;;;;;;1.90;1.70;;;;;;;3.45;100.00;101156.13;4972706;28;20178;-75
2021/11/22 04:05:20;;;;;;;3.20;1.67;;;;;;;3.42;100.00;101172.84;4972529;28;20182;-76
2021/11/22 04:07:45;;;;;;;3.33;1.90;;;;;;;3.41;100.00;101167.69;4972597;28;20170;-75
2021/11/22 04:10:12;;;;;;;2.40;2.20;;;;;;;3.36;100.00;101175.72;4968626;28;20376;-74
2021/11/22 04:12:37;;;;;;;2.60;2.40;;;;;;;3.38;100.00;101177.09;4971341;28;20492;-75
2021/11/22 04:15:02;;;;;;;1.73;1.63;;;;;;;3.31;100.00;101168.34;4972211;28;20205;-75
2021/11/22 04:17:28;;;;;;;1.93;1.83;;;;;;;3.31;100.00;101192.63;4972447;28;20166;-75
2021/11/22 04:19:53;;;;;;;2.33;1.90;;;;;;;3.27;100.00;101196.91;4972903;28;20554;-75
2021/11/22 04:22:19;;;;;;;2.07;1.97;;;;;;;3.29;100.00;101202.88;4972878;28;20676;-75
2021/11/22 04:24:44;;;;;;;3.37;1.43;;;;;;;3.18;100.00;101201.06;4972216;28;20228;-75
2021/11/22 04:27:12;;;;;;;1.93;1.83;;;;;;;3.13;100.00;101203.69;4972243;28;20578;-75
2021/11/22 04:29:40;;;;;;;2.67;2.47;;;;;;;3.04;100.00;101197.03;4971482;28;20712;-75
2021/11/22 04:32:07;;;;;;;1.43;0.77;;;;;;;3.07;100.00;101210.06;4972088;28;20201;-75
2021/11/22 04:34:33;;;;;;;4.53;2.50;;;;;;;3.03;100.00;101216.97;4972110;28;20174;-75
2021/11/22 04:36:59;;;;;;;2.23;2.10;;;;;;;3.00;100.00;101215.59;4972212;28;20180;-75
2021/11/22 04:39:24;;;;;;;2.10;1.90;;;;;;;2.90;100.00;101218.94;4972168;28;20178;-75
2021/11/22 04:41:50;;;;;;;2.40;1.80;;;;;;;2.94;100.00;101222.78;4972199;28;20268;-75
2021/11/22 04:44:16;;;;;;;1.77;1.67;;;;;;;2.87;100.00;101222.09;4972044;28;20180;-75
2021/11/22 04:46:41;;;;;;;5.83;1.90;;;;;;;2.85;100.00;101226.91;4973098;28;20570;-75
2021/11/22 04:49:06;;;;;;;2.87;2.23;;;;;;;2.86;100.00;101225.03;4970276;28;20228;-75
2021/11/22 04:51:32;;;;;;;1.60;1.43;;;;;;;2.87;100.00;101226.69;4971949;28;20211;-75
2021/11/22 04:53:57;;;;;;;3.10;2.60;;;;;;;2.82;100.00;101230.09;4971952;28;20228;-75
2021/11/22 04:56:22;;;;;;;2.53;2.33;;;;;;;2.69;100.00;101231.19;4971828;28;20198;-75
2021/11/22 04:58:48;;;;;;;3.67;1.77;;;;;;;2.78;100.00;101247.03;4971840;28;20205;-75
2021/11/22 05:01:13;;;;;;;2.03;1.83;;;;;;;2.69;100.00;101241.19;4972044;28;20216;-74
2021/11/22 05:03:39;;;;;;;2.37;2.17;;;;;;;2.80;100.00;101245.72;4971940;28;20286;-75
2021/11/22 05:06:04;;;;;;;2.63;2.10;;;;;;;2.74;100.00;101251.25;4971796;28;20174;-75
2021/11/22 05:08:29;;;;;;;2.93;2.63;;;;;;;2.70;100.00;101242.81;4971586;28;20185;-75
2021/11/22 05:10:55;;;;;;;2.27;2.07;;;;;;;2.61;100.00;101258.56;4971831;28;20205;-76
2021/11/22 05:13:20;;;;;;;2.23;2.03;;;;;;;2.59;100.00;101259.84;4971683;28;20233;-75
2021/11/22 05:15:48;;;;;;;2.13;1.90;;;;;;;2.50;100.00;101262.09;4971946;28;20177;-75
2021/11/22 05:18:15;;;;;;;4.57;2.10;;;;;;;2.45;100.00;101264.69;4971675;28;20260;-76
2021/11/22 05:20:42;;;;;;;1.83;1.73;;;;;;;2.48;100.00;101271.50;4971841;28;20181;-75
2021/11/22 05:23:09;;;;;;;2.90;2.40;;;;;;;2.47;100.00;101277.94;4971741;28;20166;-75
2021/11/22 05:25:35;;;;;;;3.83;2.07;;;;;;;2.42;100.00;101281.34;4971668;28;20178;-75
2021/11/22 05:28:01;;;;;;;3.73;3.10;;;;;;;2.38;100.00;101290.97;4971679;28;20217;-75
2021/11/22 05:30:27;;;;;;;2.83;2.53;;;;;;;2.44;100.00;101294.56;4971722;28;20178;-75
2021/11/22 05:33:01;;;;;;;3.03;2.13;;;;;;;2.49;100.00;101300.91;4971946;28;20823;-75
2021/11/22 05:35:27;;;;;;;2.07;1.90;;;;;;;2.36;100.00;101293.91;4971494;28;20177;-76
2021/11/22 05:37:53;;;;;;;2.33;2.10;;;;;;;2.38;100.00;101296.34;4971527;28;20748;-75
2021/11/22 05:40:19;;;;;;;2.63;2.20;;;;;;;2.41;100.00;101300.44;4971591;28;20178;-75
2021/11/22 05:42:44;;;;;;;3.30;2.63;;;;;;;2.29;100.00;101303.16;4974763;28;20661;-75
2021/11/22 05:45:11;;;;;;;3.60;2.40;;;;;;;2.32;100.00;101300.00;4975080;28;20178;-74
2021/11/22 05:47:36;;;;;;;2.40;2.20;;;;;;;2.25;100.00;101302.00;4975115;28;20170;-75
2021/11/22 05:50:04;;;;;;;2.30;2.10;;;;;;;2.08;100.00;101305.38;4975049;28;20181;-75
2021/11/22 05:52:31;;;;;;;2.13;1.67;;;;;;;2.24;100.00;101308.44;4975053;28;20589;-75
2021/11/22 05:54:58;;;;;;;2.40;2.20;;;;;;;2.08;100.00;101312.66;4975047;28;20491;-75
2021/11/22 05:57:24;;;;;;;2.60;2.33;;;;;;;2.18;100.00;101317.47;4974772;28;20182;-75
2021/11/22 05:59:49;;;;;;;1.90;1.80;;;;;;;2.15;100.00;101323.31;4975225;28;20236;-75
2021/11/22 06:02:15;;;;;;;2.33;2.10;;;;;;;2.32;100.00;101329.66;4975124;28;20252;-75
2021/11/22 06:04:40;;;;;;;1.50;1.40;;;;;;;2.56;100.00;101343.94;4974808;28;20190;-74
2021/11/22 06:07:06;;;;;;;2.63;1.93;;;;;;;2.50;100.00;101350.28;4975068;28;20178;-75
2021/11/22 06:09:31;;;;;;;3.73;1.87;;;;;;;2.70;100.00;101356.13;4974501;28;20189;-75
2021/11/22 06:11:57;;;;;;;2.00;1.73;;;;;;;2.49;100.00;101340.56;4974469;28;20270;-75
2021/11/22 06:14:22;;;;;;;2.10;1.50;;;;;;;2.62;100.00;101351.91;4974578;28;20289;-75
2021/11/22 06:16:47;;;;;;;2.07;1.87;;;;;;;2.62;100.00;101362.72;4974496;28;20178;-76
2021/11/22 06:19:13;;;;;;;2.97;2.30;;;;;;;2.71;100.00;101363.16;4974477;28;20563;-75
2021/11/22 06:21:38;;;;;;;1.53;1.43;;;;;;;2.61;100.00;101361.06;4974428;28;20186;-75
2021/11/22 06:24:05;;;;;;;1.17;1.03;;;;;;;2.36;100.00;101358.59;4974516;28;20174;-75
2021/11/22 06:26:32;;;;;;;1.80;1.70;;;;;;;2.24;100.00;101367.75;4974453;28;20227;-75
2021/11/22 06:28:58;;;;;;;1.77;1.30;;;;;;;2.25;100.00;101364.00;4973122;28;20206;-75
2021/11/22 06:31:23;;;;;;;1.97;1.53;;;;;;;2.15;100.00;101361.03;4974239;28;20297;-75
2021/11/22 06:33:48;;;;;;;2.13;1.57;;;;;;;2.07;100.00;101365.75;4974258;28;20174;-75
2021/11/22 06:36:14;;;;;;;1.30;1.10;;;;;;;2.09;100.00;101379.81;4974192;28;20541;-75
2021/11/22 06:38:39;;;;;;;1.40;1.23;;;;;;;2.09;100.00;101378.97;4974449;28;20273;-75
2021/11/22 06:41:04;;;;;;;1.63;1.53;;;;;;;2.07;100.00;101392.69;4974168;28;20174;-75
2021/11/22 06:43:30;;;;;;;3.53;2.00;;;;;;;2.02;100.00;101389.84;4974166;28;20177;-75
2021/11/22 06:45:55;;;;;;;1.87;1.33;;;;;;;1.93;100.00;101393.94;4973871;28;20173;-75
2021/11/22 06:48:21;;;;;;;2.03;1.87;;;;;;;1.86;100.00;101405.84;4972723;28;20174;-75
2021/11/22 06:50:46;;;;;;;3.77;1.20;;;;;;;1.85;100.00;101415.81;4973965;28;20177;-75
2021/11/22 06:53:11;;;;;;;1.47;1.27;;;;;;;1.83;100.00;101417.94;4972957;28;20622;-75
2021/11/22 06:55:37;;;;;;;1.87;1.30;;;;;;;1.82;100.00;101426.25;4973689;28;20224;-75
2021/11/22 06:58:02;;;;;;;2.07;1.87;;;;;;;1.86;100.00;101427.41;4973736;28;20197;-75
2021/11/22 07:00:28;;;;;;;2.50;1.60;;;;;;;1.89;100.00;101425.09;4973951;28;20196;-75
2021/11/22 07:02:54;;;;;;;1.30;1.20;;;;;;;1.90;100.00;101436.69;4973029;28;20225;-75
2021/11/22 07:05:21;;;;;;;1.60;1.50;;;;;;;1.84;100.00;101437.59;4969206;28;20193;-75
2021/11/22 07:07:48;;;;;;;1.73;1.33;;;;;;;1.84;100.00;101453.78;4973599;28;20224;-75
2021/11/22 07:10:14;;;;;;;0.80;0.80;;;;;;;1.86;100.00;101457.06;4973286;28;20421;-75
2021/11/22 07:12:39;;;;;;;2.00;1.13;;;;;;;1.85;100.00;101458.09;4973406;28;20228;-75
2021/11/22 07:15:05;;;;;;;1.67;1.47;;;;;;;1.90;100.00;101466.34;4973559;28;20192;-75
2021/11/22 07:17:31;;;;;;;2.90;1.40;;;;;;;1.85;100.00;101471.56;4973452;28;20261;-75
2021/11/22 07:19:57;;;;;;;3.90;1.50;;;;;;;1.87;100.00;101477.56;4973349;28;20178;-75
2021/11/22 07:22:23;;;;;;;1.00;0.93;;;;;;;1.83;100.00;101477.19;4972039;28;20185;-75
2021/11/22 07:24:48;;;;;;;1.50;1.30;;;;;;;1.75;100.00;101483.72;4973050;28;20186;-75
2021/11/22 07:27:14;;;;;;;1.40;1.30;;;;;;;1.87;100.00;101501.81;4973240;28;20177;-75
2021/11/22 07:29:43;;;;;;;1.27;1.17;;;;;;;1.83;100.00;101509.53;4973161;28;20266;-75
2021/11/22 07:32:10;;;;;;;1.27;1.17;;;;;;;1.84;100.00;101504.97;4973149;28;20284;-75
2021/11/22 07:34:35;;;;;;;1.77;1.57;;;;;;;1.89;100.00;101510.50;4972997;28;20174;-75
2021/11/22 07:37:00;;;;;;;2.73;2.20;;;;;;;1.84;100.00;101513.03;4972949;28;20197;-75
2021/11/22 07:39:26;;;;;;;4.95;4.45;;;;;;;1.91;100.00;101516.50;4972578;28;20557;-75
2021/11/22 07:41:53;;;;;;;4.03;2.70;;;;;;;2.02;100.00;101523.78;4973041;28;20181;-75
2021/11/22 07:44:19;;;;;;;1.63;1.50;;;;;;;1.91;100.00;101521.88;4973242;28;20236;-76
2021/11/22 07:46:44;;;;;;;1.67;1.00;;;;;;;1.92;100.00;101531.59;4972865;28;20583;-76
2021/11/22 07:49:10;;;;;;;1.23;1.13;;;;;;;1.75;100.00;101526.03;4973173;28;20201;-76
2021/11/22 07:51:37;;;;;;;1.73;1.60;;;;;;;1.91;100.00;101529.97;4972730;28;20650;-76
2021/11/22 07:54:02;;;;;;;0.83;0.83;;;;;;;1.98;100.00;101539.59;4972840;28;20286;-76
2021/11/22 07:56:28;;;;;;;1.93;1.20;;;;;;;2.03;100.00;101544.31;4972656;28;20272;-76
2021/11/22 07:58:53;;;;;;;1.47;1.37;;;;;;;2.08;100.00;101549.84;4972901;28;20181;-75
2021/11/22 08:01:18;;;;;;;1.57;1.47;;;;;;;2.05;100.00;101545.72;4972741;28;20229;-76
2021/11/22 08:03:44;;;;;;;1.80;1.60;;;;;;;2.01;100.00;101544.50;4972487;28;20182;-75
2021/11/22 08:06:09;;;;;;;1.67;1.50;;;;;;;2.00;100.00;101548.25;4972470;28;20269;-76
2021/11/22 08:08:37;;;;;;;11.90;1.83;;;;;;;1.86;100.00;101549.47;4972143;28;20181;-77
2021/11/22 08:11:17;;;;;;;1.33;1.23;;;;;;;1.72;100.00;101540.72;4971191;28;20185;-80
2021/11/22 08:13:42;;;;;;;2.00;1.83;;;;;;;1.70;100.00;101545.53;4972529;28;20795;-81
2021/11/22 08:16:08;;;;;;;2.17;1.97;;;;;;;1.61;100.00;101549.59;4972405;28;20541;-79
2021/11/22 08:18:35;;;;;;;3.17;2.47;;;;;;;1.54;100.00;101556.91;4972690;28;20182;-80
2021/11/22 08:21:03;;;;;;;5.40;2.00;;;;;;;1.47;100.00;101558.88;4972341;28;20174;-76
2021/11/22 08:23:29;;;;;;;2.40;1.87;;;;;;;1.59;100.00;101561.59;4972371;28;20422;-73
2021/11/22 08:25:55;;;;;;;3.23;1.73;;;;;;;1.53;100.00;101567.91;4972413;28;20754;-73
2021/11/22 08:28:21;;;;;;;1.60;1.47;;;;;;;1.46;100.00;101563.44;4972232;28;20186;-73
2021/11/22 08:30:47;;;;;;;2.73;1.73;;;;;;;1.47;100.00;101570.47;4972315;28;20170;-73
2021/11/22 08:33:14;;;;;;;1.70;1.10;;;;;;;1.49;100.00;101578.31;4972243;28;20205;-72
2021/11/22 08:35:41;;;;;;;2.27;2.07;;;;;;;1.48;100.00;101582.03;4972070;28;20178;-73
2021/11/22 08:38:07;;;;;;;4.10;1.33;;;;;;;1.48;100.00;101584.75;4972133;28;20935;-74
2021/11/22 08:40:33;;;;;;;3.23;1.90;;;;;;;1.47;100.00;101597.38;4970838;28;20425;-73
2021/11/22 08:42:59;;;;;;;4.23;1.80;;;;;;;1.47;100.00;101607.31;4971978;28;20292;-73
2021/11/22 08:45:25;;;;;;;1.43;1.17;;;;;;;1.49;100.00;101614.13;4971909;28;20952;-74
2021/11/22 08:47:51;;;;;;;1.67;1.27;;;;;;;1.54;100.00;101608.06;4971939;28;20916;-74
2021/11/22 08:50:17;;;;;;;3.10;0.80;;;;;;;1.55;100.00;101607.03;4972037;28;20512;-73
2021/11/22 08:52:44;;;;;;;1.07;1.07;;;;;;;1.57;100.00;101615.69;4972145;28;20232;-74
2021/11/22 08:55:11;;;;;;;1.40;1.30;;;;;;;1.62;100.00;101610.50;4971887;28;20422;-73
2021/11/22 08:57:38;;;;;;;1.73;1.50;;;;;;;1.72;100.00;101634.19;4970626;28;20441;-73
2021/11/22 09:00:08;;;;;;;2.60;0.90;;;;;;;1.82;100.00;101639.91;4971930;28;20476;-73
2021/11/22 09:02:34;;;;;;;4.73;1.50;;;;;;;1.94;100.00;101634.59;4971913;28;20519;-74
2021/11/22 09:04:59;;;;;;;1.30;1.17;;;;;;;2.06;100.00;101639.00;4971870;28;20767;-73
2021/11/22 09:07:24;;;;;;;2.83;1.53;;;;;;;2.17;100.00;101639.28;4971935;28;20265;-73
2021/11/22 09:09:50;;;;;;;1.67;0.77;;;;;;;2.26;100.00;101649.53;4971739;28;20268;-74
2021/11/22 09:12:15;;;;;;;1.80;1.27;;;;;;;2.34;100.00;101651.94;4971847;28;20269;-73
2021/11/22 09:14:40;;;;;;;6.67;1.23;;;;;;;2.45;100.00;101650.31;4971755;28;20269;-73
2021/11/22 09:17:06;;;;;;;1.90;1.23;;;;;;;2.53;100.00;101649.19;4973887;28;20182;-73
2021/11/22 09:19:32;;;;;;;3.47;1.70;;;;;;;2.64;100.00;101654.66;4975678;28;20189;-73
2021/11/22 09:21:57;;;;;;;2.40;1.40;;;;;;;2.51;100.00;101654.00;4973074;28;20206;-74
2021/11/22 09:24:22;;;;;;;1.13;1.03;;;;;;;2.68;100.00;101652.31;4956233;28;20183;-73
2021/11/22 09:26:48;;;;;;;1.43;0.90;;;;;;;2.74;100.00;101661.34;4965961;28;20186;-73
2021/11/22 09:29:13;;;;;;;2.17;1.57;;;;;;;2.79;100.00;101667.72;4975546;28;20228;-74
2021/11/22 09:31:38;;;;;;;1.80;1.13;;;;;;;2.76;100.00;101656.56;4975416;28;20174;-74
2021/11/22 09:34:04;;;;;;;1.70;1.17;;;;;;;2.91;100.00;101660.50;4975462;28;20277;-74
2021/11/22 09:36:29;;;;;;;1.53;1.13;;;;;;;2.84;100.00;101664.31;4975197;28;20209;-73
2021/11/22 09:38:55;;;;;;;1.63;0.83;;;;;;;2.79;100.00;101667.72;4975619;28;20182;-74
2021/11/22 09:41:27;;;;;;;2.77;1.40;;;;;;;2.85;100.00;101661.41;4975509;28;20181;-74
2021/11/22 09:43:55;;;;;;;2.87;1.20;;;;;;;3.01;100.00;101681.50;4975702;28;20166;-74
2021/11/22 09:46:22;;;;;;;1.73;1.00;;;;;;;2.90;100.00;101676.91;4975438;28;20683;-74
2021/11/22 09:48:48;;;;;;;0.83;0.60;;;;;;;2.97;100.00;101686.56;4975875;28;20170;-74
2021/11/22 09:51:14;;;;;;;1.70;0.97;;;;;;;2.95;100.00;101682.44;4974528;28;20189;-74
2021/11/22 09:53:41;;;;;;;1.33;1.23;;;;;;;2.92;100.00;101691.81;4975426;28;20174;-74
2021/11/22 09:56:07;;;;;;;1.23;0.93;;;;;;;3.07;100.00;101693.28;4973898;28;20711;-74
2021/11/22 09:58:33;;;;;;;0.90;0.87;;;;;;;3.25;100.00;101702.13;4975270;28;20186;-74
2021/11/22 10:01:09;;;;;;;0.80;0.80;;;;;;;3.28;100.00;101701.66;4975188;28;20225;-74
2021/11/22 10:03:34;;;;;;;1.20;1.00;;;;;;;3.31;100.00;101699.53;4975043;28;20219;-74
2021/11/22 10:06:02;;;;;;;1.27;0.90;;;;;;;3.31;100.00;101704.94;4974678;28;20178;-74
2021/11/22 10:08:29;;;;;;;1.40;1.07;;;;;;;3.28;100.00;101698.13;4974813;28;20569;-74
2021/11/22 10:11:00;;;;;;;1.53;0.93;;;;;;;3.38;100.00;101698.38;4975010;28;20185;-74
2021/11/22 10:13:27;;;;;;;3.73;0.83;;;;;;;3.47;100.00;101694.31;4974971;28;20174;-74
2021/11/22 10:16:15;;;;;;;1.43;0.80;;;;;;;3.52;100.00;101707.91;4974835;28;20213;-73
2021/11/22 10:18:59;;;;;;;2.67;1.17;;;;;;;3.54;100.00;101703.09;4967783;28;20193;-73
2021/11/22 10:21:29;;;;;;;1.23;1.10;;;;;;;3.62;100.00;101704.66;4974794;28;20511;-73
2021/11/22 10:24:13;;;;;;;1.40;1.10;;;;;;;3.66;100.00;101699.59;4974965;28;20174;-74
2021/11/22 10:26:42;;;;;;;1.00;0.93;;;;;;;3.68;100.00;101706.41;4974620;28;20170;-73
2021/11/22 10:29:10;;;;;;;3.17;1.83;;;;;;;3.72;100.00;101698.66;4974715;28;20174;-74
2021/11/22 10:31:36;;;;;;;1.90;1.47;;;;;;;3.77;100.00;101707.72;4974397;28;20241;-76
2021/11/22 10:34:02;;;;;;;2.07;1.30;;;;;;;3.87;100.00;101712.50;4974681;28;20175;-73
2021/11/22 10:36:29;;;;;;;1.77;0.90;;;;;;;3.84;100.00;101702.19;4973187;28;20182;-73
2021/11/22 10:38:59;;;;;;;0.97;0.87;;;;;;;3.88;100.00;101711.44;4974497;28;20174;-73
2021/11/22 10:41:31;;;;;;;1.70;0.87;;;;;;;3.87;100.00;101713.34;4972855;28;20182;-73
2021/11/22 10:44:03;;;;;;;1.03;0.80;;;;;;;3.88;100.00;101703.34;4974143;28;20865;-74
2021/11/22 10:46:32;;;;;;;1.40;1.00;;;;;;;3.94;100.00;101709.69;4973819;28;20181;-73
2021/11/22 10:49:16;;;;;;;1.20;1.07;;;;;;;4.00;100.00;101714.97;4974059;28;20558;-74
2021/11/22 10:51:45;;;;;;;1.03;0.73;;;;;;;4.02;100.00;101715.56;4974000;28;20725;-73
2021/11/22 10:54:15;;;;;;;1.87;1.30;;;;;;;4.02;100.00;101714.75;4973917;28;20642;-73
2021/11/22 10:56:44;;;;;;;2.07;1.47;;;;;;;4.08;100.00;101716.50;4973272;28;20344;-73
2021/11/22 10:59:12;;;;;;;1.07;0.87;;;;;;;4.11;100.00;101719.56;4973763;28;20646;-74
2021/11/22 11:01:48;;;;;;;1.00;0.90;;;;;;;4.25;100.00;101722.84;4973854;28;20174;-74
2021/11/22 11:04:23;;;;;;;1.80;1.03;;;;;;;4.24;100.00;101720.38;4973683;28;20178;-74
2021/11/22 11:06:51;;;;;;;0.83;0.70;;;;;;;4.25;100.00;101724.72;4973550;28;20207;-73
2021/11/22 11:09:26;;;;;;;1.53;1.00;;;;;;;4.18;100.00;101720.25;4973148;28;20174;-73
2021/11/22 11:12:01;;;;;;;1.40;0.80;;;;;;;4.16;100.00;101719.66;4973228;28;20184;-74
2021/11/22 11:14:28;;;;;;;1.27;1.13;;;;;;;4.26;99.86;101718.25;4973096;28;20165;-73
2021/11/22 11:16:54;;;;;;;2.20;0.73;;;;;;;4.29;99.82;101724.00;4972742;28;20185;-74
2021/11/22 11:19:19;;;;;;;1.47;1.07;;;;;;;4.35;99.57;101725.75;4962348;28;20460;-74
2021/11/22 11:21:48;;;;;;;0.93;0.60;;;;;;;4.33;98.04;101730.56;4957448;28;20213;-74